Time;durP1;ratioP1;P1;durP2;ratioP2;P2;SDS_P1;SDS_P2;PMS_P1;PMS_P2;Temp;Humidity;BMP_temperature;BMP_pressure;BME280_temperature;BME280_humidity;BME280_pressure;Samples;Min_cycle;Max_cycle;Signal;HPM_P1;HPM_P2
2021/12/16 00:07:54;;;;;;;30.92;20.58;;;6.50;99.90;;;5.56;100.00;102970.06;4118061;28;20054;-72
2021/12/16 00:10:01;;;;;;;29.08;18.75;;;6.50;99.90;;;5.57;100.00;102982.22;4104649;28;20027;-72
2021/12/16 00:33:09;;;;;;;27.65;18.50;;;6.30;99.90;;;5.55;100.00;102993.69;4104227;29;20088;-72
2021/12/16 00:35:07;;;;;;;29.73;20.52;;;6.40;99.90;;;5.43;100.00;102984.63;4104754;28;20041;-72
2021/12/16 00:37:08;;;;;;;29.88;20.70;;;6.30;99.90;;;5.56;100.00;102991.00;4119157;28;20030;-72
2021/12/16 00:39:16;;;;;;;27.98;18.98;;;6.50;99.90;;;5.65;100.00;102989.72;4119027;28;20057;-72
2021/12/16 00:41:17;;;;;;;25.48;18.38;;;6.40;99.90;;;5.49;100.00;102992.22;4118195;28;20041;-72
2021/12/16 00:43:29;;;;;;;26.92;18.23;;;6.40;99.90;;;5.52;100.00;102989.44;4104219;29;20031;-72
2021/12/16 00:45:41;;;;;;;25.52;18.45;;;6.40;99.90;;;5.50;100.00;102983.41;4117707;28;20027;-72
2021/12/16 00:47:49;;;;;;;32.35;20.65;;;6.40;99.90;;;5.47;100.00;102978.31;4117610;28;20413;-72
2021/12/16 00:49:53;;;;;;;29.90;20.00;;;6.40;99.90;;;5.45;100.00;102980.16;4104347;28;20498;-71
2021/12/16 00:54:16;;;;;;;28.92;19.83;;;6.40;99.90;;;5.34;100.00;102978.94;4104332;29;20034;-72
2021/12/16 00:56:17;;;;;;;31.30;19.50;;;6.40;99.90;;;5.42;100.00;102977.69;4104208;28;20028;-72
2021/12/16 00:58:25;;;;;;;27.65;18.70;;;6.30;99.90;;;5.50;100.00;102980.78;4118835;28;20058;-72
2021/12/16 01:00:30;;;;;;;31.27;19.45;;;6.30;99.90;;;5.39;100.00;102980.44;4118497;28;20421;-72
2021/12/16 01:35:54;;;;;;;27.23;19.15;;;6.40;99.90;;;5.59;100.00;102972.53;4116560;28;20588;-72
2021/12/16 01:41:31;;;;;;;30.67;19.20;;;6.50;99.90;;;5.54;100.00;102982.38;4101942;29;20067;-72
2021/12/16 01:45:27;;;;;;;26.27;17.80;;;6.40;99.90;;;5.53;100.00;102983.28;4090628;28;20245;-72
2021/12/16 01:45:51;;;;;;;25.10;17.98;;;6.40;99.90;;;5.59;100.00;102980.38;4110591;28;20326;-72
2021/12/16 01:52:05;;;;;;;26.48;18.02;;;6.40;99.90;;;5.48;100.00;102981.78;4119741;28;20031;-72
2021/12/16 01:58:35;;;;;;;26.95;19.35;;;6.40;99.90;;;5.63;100.00;102988.09;4121749;28;20049;-72
2021/12/16 02:03:25;;;;;;;29.30;18.48;;;6.40;99.90;;;5.66;100.00;102998.44;4106467;29;20039;-72
2021/12/16 02:09:57;;;;;;;33.47;19.58;;;6.50;99.90;;;5.62;100.00;102992.47;4106716;28;20067;-72
2021/12/16 02:31:44;;;;;;;28.63;18.88;;;6.40;99.90;;;5.54;100.00;102990.22;4106227;28;20019;-72
2021/12/16 02:35:13;;;;;;;27.80;17.63;;;6.50;99.90;;;5.75;100.00;103003.25;4121097;28;20496;-72
2021/12/16 02:37:20;;;;;;;25.55;17.50;;;6.50;99.90;;;5.70;100.00;103005.25;4119103;28;20041;-72
2021/12/16 02:39:35;;;;;;;25.10;17.48;;;6.50;99.90;;;5.65;100.00;102999.34;4120517;28;20038;-72
2021/12/16 02:41:40;;;;;;;21.88;15.60;;;6.90;99.90;;;5.69;100.00;103001.78;4120855;28;20410;-72
2021/12/16 02:50:28;;;;;;;26.95;17.50;;;6.50;99.90;;;5.63;100.00;103009.03;4106016;29;20066;-72
2021/12/16 02:52:29;;;;;;;28.42;18.40;;;6.50;99.90;;;5.56;100.00;103000.59;4120852;28;20035;-72
2021/12/16 02:54:30;;;;;;;27.10;17.60;;;6.40;99.90;;;5.67;100.00;103008.84;4120820;28;20130;-72
2021/12/16 02:56:33;;;;;;;25.73;17.50;;;6.40;99.90;;;5.73;100.00;103010.34;4120776;28;20031;-72
2021/12/16 02:58:39;;;;;;;31.10;19.45;;;6.50;99.90;;;5.63;100.00;103007.28;4120738;28;20070;-72
2021/12/16 03:01:00;;;;;;;30.98;18.20;;;6.50;99.90;;;5.55;100.00;102998.94;4120575;28;20110;-72
2021/12/16 03:03:01;;;;;;;27.13;16.88;;;6.50;99.90;;;5.66;100.00;103012.38;4104755;28;20035;-72
2021/12/16 03:05:03;;;;;;;24.15;16.13;;;6.50;99.90;;;5.70;100.00;103015.72;4120523;28;20049;-71
2021/12/16 03:07:07;;;;;;;24.00;16.10;;;6.50;99.90;;;5.68;100.00;103013.16;4104443;28;20027;-71
2021/12/16 03:09:13;;;;;;;22.42;14.40;;;6.50;99.90;;;5.74;100.00;103017.25;4120239;28;20031;-72
2021/12/16 03:11:21;;;;;;;20.35;14.23;;;6.50;99.90;;;5.69;100.00;103016.63;4130075;28;20030;-71
2021/12/16 03:13:31;;;;;;;30.20;17.15;;;6.40;99.90;;;5.41;100.00;103002.16;4117435;28;20027;-72
2021/12/16 03:20:03;;;;;;;23.23;14.60;;;6.20;99.90;;;5.57;100.00;103008.41;4120543;28;20035;-72
2021/12/16 03:22:05;;;;;;;22.02;14.75;;;6.50;99.90;;;5.63;100.00;103007.28;4118896;28;20023;-72
2021/12/16 03:33:20;;;;;;;21.00;14.45;;;6.50;99.90;;;5.66;100.00;103008.91;4105394;28;20031;-71
2021/12/16 03:37:29;;;;;;;27.95;15.85;;;6.50;99.90;;;5.63;100.00;102994.19;4119769;28;20100;-71
2021/12/16 03:39:32;;;;;;;23.67;14.82;;;6.40;99.90;;;5.54;100.00;102995.47;4120032;28;20055;-71
2021/12/16 03:41:34;;;;;;;22.08;14.45;;;6.50;99.90;;;5.61;100.00;102997.81;4119978;28;20514;-71
2021/12/16 03:43:37;;;;;;;26.15;14.18;;;6.40;99.90;;;5.65;100.00;102999.34;4104857;29;20065;-72
2021/12/16 03:48:32;;;;;;;25.95;16.30;;;6.50;99.90;;;5.53;100.00;103012.06;4116189;28;20047;-72
2021/12/16 03:50:33;;;;;;;22.58;14.70;;;5.10;99.90;;;5.48;100.00;103000.13;4119357;28;20055;-72
2021/12/16 03:52:36;;;;;;;24.45;15.82;;;6.40;99.90;;;5.66;100.00;103001.91;4105038;29;20491;-72
2021/12/16 03:54:49;;;;;;;25.23;15.23;;;6.40;99.90;;;5.69;100.00;103006.16;4105020;29;20035;-72
2021/12/16 03:56:52;;;;;;;24.10;16.00;;;6.40;99.90;;;5.56;100.00;103009.31;4104905;29;20530;-72
2021/12/16 03:58:54;;;;;;;22.98;15.95;;;6.40;99.90;;;5.66;100.00;103008.91;4119762;28;20035;-72
2021/12/16 04:01:02;;;;;;;24.33;16.38;;;6.40;99.90;;;5.67;100.00;103008.84;4119538;28;20058;-72
2021/12/16 04:03:03;;;;;;;28.27;16.67;;;6.50;99.90;;;5.73;100.00;103002.50;4104456;29;20035;-72
2021/12/16 04:05:08;;;;;;;21.15;14.10;;;6.50;99.90;;;5.74;100.00;103009.41;4119246;28;20086;-72
2021/12/16 04:07:09;;;;;;;;;;;6.50;99.90;;;5.72;100.00;103013.88;4105244;28;20028;-72
2021/12/16 04:09:13;;;;;;;22.63;13.90;;;6.50;99.90;;;5.68;100.00;103012.28;4087688;29;19911;-71
2021/12/16 04:11:22;;;;;;;24.58;14.80;;;6.40;99.90;;;5.62;100.00;103009.94;4087669;28;20032;-71
2021/12/16 04:13:23;;;;;;;21.70;13.85;;;6.40;99.90;;;5.65;100.00;103008.06;4103625;29;20069;-72
2021/12/16 04:15:24;;;;;;;22.48;14.18;;;6.40;99.90;;;5.49;100.00;103005.28;4119453;28;20426;-72
2021/12/16 04:17:28;;;;;;;23.98;14.55;;;6.40;99.90;;;5.68;100.00;103009.69;4104379;28;20058;-72
2021/12/16 04:19:32;;;;;;;24.67;16.35;;;6.40;99.90;;;5.63;100.00;103009.91;4119220;28;20057;-71
2021/12/16 04:21:33;;;;;;;25.83;15.43;;;6.50;99.90;;;5.62;100.00;103002.94;4119449;28;20402;-72
2021/12/16 04:23:34;;;;;;;21.52;14.82;;;6.50;99.90;;;5.67;100.00;103010.63;4104515;28;20027;-71
2021/12/16 04:25:41;;;;;;;23.65;14.35;;;6.50;99.90;;;5.75;100.00;103009.34;4119369;28;20493;-72
2021/12/16 04:27:44;;;;;;;23.52;15.02;;;6.60;99.90;;;5.65;100.00;103015.91;4118920;28;20026;-72
2021/12/16 04:29:46;;;;;;;22.42;14.23;;;6.50;99.90;;;5.59;100.00;103008.31;4119373;28;20041;-72
2021/12/16 04:31:47;;;;;;;23.15;15.15;;;6.50;99.90;;;5.56;100.00;103009.31;4119048;28;20015;-72
2021/12/16 04:33:49;;;;;;;24.52;15.75;;;6.50;99.90;;;5.63;100.00;103014.28;4100565;28;20039;-72
2021/12/16 04:35:50;;;;;;;22.63;14.15;;;6.40;99.90;;;5.65;100.00;103007.19;4119012;28;20037;-71
2021/12/16 04:37:53;;;;;;;24.80;15.73;;;6.50;99.90;;;5.49;100.00;103007.91;4119230;28;20031;-71
2021/12/16 04:39:54;;;;;;;21.27;15.52;;;6.50;99.90;;;5.58;100.00;103007.47;4104347;28;20565;-71
2021/12/16 04:41:57;;;;;;;24.83;15.25;;;6.60;99.90;;;5.59;100.00;103011.81;4103017;28;20495;-71
2021/12/16 04:43:58;;;;;;;24.40;15.10;;;6.40;99.90;;;5.63;100.00;103011.66;4102859;28;20447;-71
2021/12/16 04:45:59;;;;;;;23.48;14.23;;;6.40;99.90;;;5.57;100.00;103016.25;4118947;28;20030;-72
2021/12/16 04:48:01;;;;;;;24.95;15.75;;;6.40;99.90;;;5.47;100.00;103014.97;4118748;28;20029;-71
2021/12/16 04:50:05;;;;;;;23.08;15.20;;;6.40;99.90;;;5.68;100.00;103022.78;4104127;28;20035;-71
2021/12/16 04:52:17;;;;;;;18.23;12.57;;;6.50;99.90;;;5.71;100.00;103015.63;4104169;28;20042;-71
2021/12/16 04:54:22;;;;;;;25.13;16.83;;;6.40;99.90;;;5.67;100.00;103000.16;4104162;28;20027;-71
2021/12/16 04:56:24;;;;;;;22.80;13.68;;;6.50;99.90;;;5.78;100.00;103006.59;4104117;28;20114;-72
2021/12/16 04:58:26;;;;;;;20.33;14.55;;;6.60;99.90;;;5.72;100.00;103011.25;4118804;28;20022;-72
2021/12/16 05:00:27;;;;;;;20.88;14.52;;;6.60;99.90;;;5.71;100.00;103013.00;4118978;28;20106;-72
2021/12/16 05:02:28;;;;;;;20.55;15.10;;;6.50;99.90;;;5.70;100.00;103015.72;4118575;28;20517;-72
2021/12/16 05:04:29;;;;;;;19.42;13.57;;;6.50;99.90;;;5.68;100.00;103014.91;4118526;28;20027;-72
2021/12/16 05:06:30;;;;;;;20.38;14.20;;;6.60;99.90;;;5.63;100.00;103014.28;4103910;28;20023;-72
2021/12/16 05:08:32;;;;;;;17.75;13.02;;;6.60;99.90;;;5.69;100.00;103029.72;4118882;28;20037;-71
2021/12/16 05:10:33;;;;;;;16.95;12.95;;;6.50;99.90;;;5.68;100.00;103030.63;4103986;28;20086;-71
2021/12/16 05:12:52;;;;;;;18.33;12.90;;;6.60;99.90;;;5.64;100.00;103016.00;4102722;28;20552;-72
2021/12/16 05:14:53;;;;;;;20.38;13.70;;;6.60;99.90;;;5.69;100.00;103025.34;4103964;28;20023;-72
2021/12/16 05:16:54;;;;;;;21.65;15.10;;;6.60;99.90;;;5.69;100.00;103025.34;4118411;28;20497;-71
2021/12/16 05:18:56;;;;;;;21.13;14.77;;;6.60;99.90;;;5.68;100.00;103038.47;4102735;29;20038;-71
2021/12/16 05:21:03;;;;;;;23.42;14.88;;;6.60;99.90;;;5.78;100.00;103030.16;4103824;28;20027;-72
2021/12/16 05:25:45;;;;;;;21.80;14.90;;;6.60;99.90;;;5.78;100.00;103026.69;4116497;28;20046;-72
2021/12/16 05:27:46;;;;;;;16.92;12.73;;;7.00;99.90;;;5.81;100.00;103035.25;4121313;28;20030;-71
2021/12/16 05:29:47;;;;;;;18.58;13.15;;;6.60;99.90;;;5.88;100.00;103018.38;4124019;28;20027;-72
2021/12/16 05:31:49;;;;;;;18.02;12.65;;;6.70;99.90;;;5.94;100.00;103033.78;4108951;28;20026;-72
2021/12/16 05:33:52;;;;;;;17.42;11.90;;;8.00;99.90;;;5.97;100.00;103031.03;4123970;28;20031;-72
2021/12/16 05:35:54;;;;;;;19.60;13.20;;;6.70;99.90;;;5.96;100.00;103036.34;4123793;28;20110;-72
2021/12/16 05:37:56;;;;;;;18.75;13.60;;;6.80;99.90;;;5.81;100.00;103027.41;4109181;28;20038;-72
2021/12/16 05:39:57;;;;;;;15.30;12.10;;;7.20;99.90;;;5.95;100.00;103034.66;4123798;28;20038;-71
2021/12/16 05:41:57;;;;;;;17.65;12.10;;;6.70;99.90;;;5.85;100.00;103030.75;4107784;28;20030;-72
2021/12/16 05:43:59;;;;;;;16.88;11.98;;;6.70;99.90;;;5.97;100.00;103035.44;4108850;28;20042;-72
2021/12/16 05:46:00;;;;;;;15.82;11.45;;;6.70;99.90;;;6.01;100.00;103032.59;4123879;28;20530;-71
2021/12/16 05:48:05;;;;;;;17.10;12.38;;;6.80;99.90;;;6.01;100.00;103031.75;4123573;28;20034;-72
2021/12/16 05:50:08;;;;;;;16.40;11.18;;;6.80;99.90;;;6.03;100.00;103038.63;4123584;28;20027;-72
2021/12/16 05:52:09;;;;;;;17.48;11.75;;;6.80;99.90;;;6.04;100.00;103042.09;4123834;28;20081;-72
2021/12/16 05:54:11;;;;;;;13.93;10.45;;;6.80;99.90;;;6.03;100.00;103038.63;4123600;28;20035;-72
2021/12/16 05:56:13;;;;;;;12.35;9.77;;;6.80;99.90;;;6.05;100.00;103041.19;4123758;28;20494;-71
2021/12/16 05:58:19;;;;;;;13.27;10.13;;;6.80;99.90;;;6.11;100.00;103035.66;4123609;28;20116;-72
2021/12/16 06:00:28;;;;;;;13.63;10.20;;;6.90;99.90;;;6.00;100.00;103032.69;4123304;28;20037;-72
2021/12/16 06:02:29;;;;;;;12.18;9.68;;;6.80;99.90;;;6.02;100.00;103042.19;4123208;28;20568;-72
2021/12/16 06:04:30;;;;;;;14.32;10.27;;;6.90;99.90;;;6.08;100.00;103054.13;4103917;28;20028;-72
2021/12/16 06:06:32;;;;;;;11.38;8.95;;;6.80;99.90;;;5.97;100.00;103041.50;4095778;28;20094;-72
2021/12/16 06:08:34;;;;;;;12.77;9.85;;;6.80;99.90;;;6.08;100.00;103041.03;4108957;28;20055;-72
2021/12/16 06:12:40;;;;;;;12.82;10.18;;;6.90;99.90;;;5.90;100.00;103047.97;4123194;28;20058;-72
2021/12/16 06:14:55;;;;;;;12.65;9.80;;;6.80;99.90;;;5.95;100.00;103048.59;4108729;28;20039;-72
2021/12/16 06:26:42;;;;;;;13.10;10.15;;;6.80;99.90;;;5.94;100.00;103035.59;4121372;28;20077;-72
2021/12/16 06:28:46;;;;;;;11.90;9.00;;;6.80;99.90;;;5.98;100.00;103043.22;4120346;28;20031;-72
2021/12/16 06:30:48;;;;;;;10.60;8.88;;;7.20;99.90;;;5.96;100.00;103038.97;4108541;28;20051;-72
2021/12/16 06:32:50;;;;;;;12.70;9.52;;;6.80;99.90;;;6.03;100.00;103036.00;4123253;28;20109;-72
2021/12/16 06:34:52;;;;;;;12.13;8.98;;;6.80;99.90;;;6.08;100.00;103034.03;4108533;28;20073;-71
2021/12/16 06:36:54;;;;;;;12.85;8.93;;;6.90;99.90;;;6.10;100.00;103036.56;4123302;28;20041;-73
2021/12/16 06:38:55;;;;;;;11.52;9.23;;;6.90;99.90;;;6.10;100.00;103037.41;4104951;28;20041;-73
2021/12/16 06:40:57;;;;;;;13.30;9.55;;;6.90;99.90;;;6.08;100.00;103041.91;4106934;28;20028;-73
2021/12/16 06:43:01;;;;;;;10.70;8.55;;;7.00;99.90;;;6.16;100.00;103052.00;4089786;29;20067;-73
2021/12/16 06:45:15;;;;;;;11.43;8.97;;;6.90;99.90;;;6.22;100.00;103045.63;4106628;28;20406;-72
2021/12/16 06:47:21;;;;;;;14.18;10.40;;;7.00;99.90;;;6.02;100.00;103033.47;4120186;28;20262;-73
2021/12/16 06:49:23;;;;;;;11.65;9.02;;;7.00;99.90;;;6.00;100.00;103030.06;4121079;28;20035;-72
2021/12/16 06:51:36;;;;;;;10.10;8.45;;;6.90;99.90;;;6.11;100.00;103048.75;4106887;28;20019;-73
2021/12/16 06:54:02;;;;;;;9.98;8.18;;;7.10;99.90;;;6.10;100.00;103047.91;4120143;28;20034;-72
2021/12/16 06:56:13;;;;;;;10.27;8.05;;;7.00;99.90;;;6.12;100.00;103051.28;4106862;28;20031;-73
2021/12/16 06:58:29;;;;;;;13.50;8.50;;;7.00;99.90;;;6.18;100.00;103044.09;4106679;28;20042;-73
2021/12/16 07:00:40;;;;;;;12.88;8.57;;;7.00;99.90;;;6.20;100.00;103048.31;4121283;28;20063;-73
2021/12/16 07:03:02;;;;;;;11.68;8.68;;;7.00;99.90;;;6.15;100.00;103045.09;4105422;28;20397;-73
2021/12/16 07:05:09;;;;;;;10.90;7.90;;;7.00;99.90;;;6.16;100.00;103052.00;4119014;28;20047;-73
2021/12/16 07:07:12;;;;;;;14.90;8.73;;;7.00;99.90;;;6.20;100.00;103050.09;4137230;28;20122;-73
2021/12/16 07:09:19;;;;;;;12.18;9.02;;;7.10;99.90;;;6.28;100.00;103067.16;4121315;28;20031;-73
2021/12/16 07:11:20;;;;;;;12.90;9.00;;;7.00;99.90;;;6.28;100.00;103059.28;4106416;28;20082;-73
2021/12/16 07:13:31;;;;;;;11.02;8.13;;;7.10;99.90;;;6.29;100.00;103055.75;4121493;28;20094;-73
2021/12/16 07:15:35;;;;;;;12.00;8.35;;;7.10;99.90;;;6.25;100.00;103058.59;4106290;29;20114;-72
2021/12/16 07:17:40;;;;;;;13.40;8.93;;;7.00;99.90;;;6.28;100.00;103061.91;4120498;28;20038;-73
2021/12/16 07:19:43;;;;;;;14.45;9.38;;;7.10;99.90;;;6.27;100.00;103069.88;4129870;28;20069;-73
2021/12/16 07:21:45;;;;;;;15.20;9.60;;;7.10;99.90;;;6.22;100.00;103067.44;4110869;28;20031;-73
2021/12/16 07:23:46;;;;;;;14.18;9.68;;;7.10;99.90;;;6.24;100.00;103065.63;4105537;29;20062;-73
2021/12/16 07:25:47;;;;;;;11.98;9.70;;;7.10;99.90;;;6.26;100.00;103066.38;4121191;28;20450;-72
2021/12/16 07:27:49;;;;;;;13.07;8.52;;;7.10;99.90;;;6.30;100.00;103075.78;4105510;28;20028;-72
2021/12/16 07:29:49;;;;;;;12.45;8.68;;;7.10;99.90;;;6.31;100.00;103067.00;4120105;28;20426;-73
2021/12/16 07:31:51;;;;;;;14.38;9.95;;;7.10;99.90;;;6.29;100.00;103068.00;4105095;29;20034;-71
2021/12/16 07:33:52;;;;;;;16.35;10.77;;;7.10;99.90;;;6.22;100.00;103077.94;4119748;28;20106;-71
2021/12/16 07:35:55;;;;;;;14.68;9.88;;;7.10;99.90;;;6.12;100.00;103071.44;4104056;28;20038;-72
2021/12/16 07:37:56;;;;;;;17.50;11.02;;;7.10;99.90;;;6.16;100.00;103075.59;4104104;29;20082;-72
2021/12/16 07:40:00;;;;;;;13.60;9.80;;;7.10;99.90;;;6.10;100.00;103073.25;4119917;28;20030;-71
2021/12/16 07:42:00;;;;;;;15.20;10.48;;;7.10;99.90;;;6.13;100.00;103073.97;4104995;28;20416;-71
2021/12/16 07:44:11;;;;;;;15.32;10.77;;;7.10;99.90;;;6.22;100.00;103082.31;4104979;28;20104;-71
2021/12/16 07:46:13;;;;;;;14.55;10.32;;;7.10;99.90;;;6.29;100.00;103087.22;4118764;28;20026;-72
2021/12/16 07:48:16;;;;;;;15.75;10.45;;;7.10;99.90;;;6.21;100.00;103076.25;4104975;28;20503;-72
2021/12/16 07:50:17;;;;;;;15.38;9.43;;;7.20;99.90;;;6.28;100.00;103074.16;4119264;28;20487;-72
2021/12/16 07:52:21;;;;;;;14.32;9.38;;;7.10;99.90;;;6.27;100.00;103081.22;4119638;28;20023;-72
2021/12/16 07:54:23;;;;;;;15.60;10.45;;;7.10;99.90;;;6.24;100.00;103081.34;4103695;29;20081;-72
2021/12/16 07:56:24;;;;;;;14.23;10.05;;;7.20;99.90;;;6.19;100.00;103088.56;4119719;28;20038;-72
2021/12/16 07:58:25;;;;;;;17.92;11.52;;;7.20;99.90;;;6.27;100.00;103083.81;4104690;28;20114;-72
2021/12/16 08:00:33;;;;;;;14.70;10.00;;;7.20;99.90;;;6.32;100.00;103084.44;4104917;28;20545;-72
2021/12/16 08:02:34;;;;;;;17.10;10.80;;;7.20;99.90;;;6.30;100.00;103085.44;4104504;28;20031;-71
2021/12/16 08:04:41;;;;;;;13.68;10.23;;;7.20;99.90;;;6.40;100.00;103091.94;4104424;28;20038;-72
2021/12/16 08:06:42;;;;;;;12.90;9.45;;;7.20;99.90;;;6.35;100.00;103075.59;4119332;28;20027;-72
2021/12/16 08:08:43;;;;;;;16.17;9.82;;;7.30;99.90;;;6.40;100.00;103094.56;4125164;28;20023;-71
2021/12/16 08:10:45;;;;;;;14.70;9.30;;;7.20;99.90;;;6.38;100.00;103088.56;4119233;28;20073;-72
2021/12/16 08:12:46;;;;;;;13.93;8.32;;;7.20;99.90;;;6.33;100.00;103096.63;4104567;28;20035;-72
2021/12/16 08:14:48;;;;;;;12.32;8.85;;;7.30;99.90;;;6.31;100.00;103098.47;4119195;28;20039;-72
2021/12/16 08:16:48;;;;;;;10.70;7.88;;;7.30;99.90;;;6.21;100.00;103085.88;4119139;28;20073;-72
2021/12/16 08:18:53;;;;;;;12.63;8.13;;;7.20;99.90;;;6.08;100.00;103099.53;4104556;28;20443;-71
2021/12/16 08:20:54;;;;;;;13.05;8.18;;;7.10;99.90;;;6.18;100.00;103109.59;4119308;28;20038;-72
2021/12/16 08:22:56;;;;;;;10.95;7.00;;;7.80;99.90;;;5.98;100.00;103100.84;4102965;28;20031;-71
2021/12/16 08:24:57;;;;;;;11.23;8.40;;;7.50;99.90;;;5.98;100.00;103105.25;4103370;29;20027;-72
2021/12/16 08:26:58;;;;;;;12.18;7.93;;;7.00;99.90;;;6.01;100.00;103105.09;4119437;28;20038;-71
2021/12/16 08:28:59;;;;;;;13.77;9.00;;;7.00;99.90;;;6.08;100.00;103111.78;4104501;29;20031;-72
2021/12/16 08:31:00;;;;;;;12.65;9.00;;;7.00;99.90;;;6.04;100.00;103103.19;4119246;28;20042;-71
2021/12/16 08:33:05;;;;;;;11.57;8.60;;;7.00;99.90;;;6.09;100.00;103106.44;4118836;28;20038;-71
2021/12/16 08:35:09;;;;;;;13.45;8.85;;;7.10;99.90;;;6.10;100.00;103110.78;4118697;28;20031;-73
2021/12/16 08:37:10;;;;;;;12.23;9.23;;;7.10;99.90;;;6.07;100.00;103112.69;4102945;28;20031;-71
2021/12/16 08:39:11;;;;;;;11.93;8.23;;;7.10;99.90;;;6.17;100.00;103108.75;4103236;29;20057;-72
2021/12/16 08:41:31;;;;;;;14.27;9.23;;;7.20;99.90;;;6.08;100.00;103101.31;4103017;28;20031;-72
2021/12/16 08:43:32;;;;;;;14.60;9.10;;;7.00;99.90;;;6.14;100.00;103108.88;4118453;28;20034;-71
2021/12/16 08:45:34;;;;;;;14.32;9.05;;;7.10;99.90;;;6.20;100.00;103110.38;4104121;29;20034;-71
2021/12/16 08:47:35;;;;;;;13.90;9.20;;;7.10;99.90;;;6.32;100.00;103121.16;4118719;28;20023;-72
2021/12/16 08:49:36;;;;;;;13.60;9.68;;;7.20;99.90;;;6.35;100.00;103110.53;4102835;29;20027;-71
2021/12/16 08:51:44;;;;;;;15.15;9.52;;;7.30;99.90;;;6.19;100.00;103111.28;4118853;28;20023;-71
2021/12/16 08:53:45;;;;;;;11.25;8.18;;;7.20;99.90;;;6.20;100.00;103119.09;4102954;29;20470;-72
2021/12/16 08:55:49;;;;;;;15.05;8.88;;;7.20;99.90;;;6.22;100.00;103114.63;4102892;29;20035;-72
2021/12/16 08:57:50;;;;;;;13.00;9.27;;;7.20;99.90;;;6.32;100.00;103115.91;4103998;28;20503;-72
2021/12/16 08:59:51;;;;;;;15.82;9.70;;;7.20;99.90;;;6.23;100.00;103111.09;4103901;29;20035;-71
2021/12/16 09:01:56;;;;;;;16.10;10.70;;;7.30;99.90;;;6.26;100.00;103113.56;4117834;28;20597;-72
2021/12/16 09:03:57;;;;;;;;;;;7.20;99.90;;;6.24;100.00;103117.19;4119138;28;20502;-72
2021/12/16 09:05:59;;;;;;;14.90;9.23;;;7.30;99.90;;;6.19;100.00;103114.75;4102401;29;19918;-72
2021/12/16 09:08:00;;;;;;;16.05;10.30;;;7.20;99.90;;;6.17;100.00;103121.00;4103726;28;20106;-71
2021/12/16 09:10:02;;;;;;;15.98;11.27;;;7.20;99.90;;;6.22;100.00;103126.88;4103927;28;20514;-71
2021/12/16 09:12:13;;;;;;;15.95;11.02;;;7.20;99.90;;;6.24;100.00;103128.53;4118682;28;20027;-72
2021/12/16 09:14:14;;;;;;;15.80;10.43;;;7.20;99.90;;;6.27;100.00;103128.38;4117816;28;20022;-72
2021/12/16 09:16:19;;;;;;;16.08;9.38;;;7.20;99.90;;;6.22;100.00;103140.81;4103480;29;20455;-72
2021/12/16 09:18:27;;;;;;;17.00;10.70;;;7.20;99.90;;;6.35;100.00;103141.97;4118540;28;20544;-72
2021/12/16 09:20:29;;;;;;;14.73;10.70;;;7.30;99.90;;;6.41;100.00;103146.09;4118442;28;20034;-71
2021/12/16 09:22:30;;;;;;;14.27;9.52;;;7.30;99.90;;;6.31;100.00;103132.53;4118316;28;20023;-72
2021/12/16 09:24:31;;;;;;;17.70;10.65;;;7.30;99.90;;;6.39;100.00;103140.06;4103516;29;20453;-72
2021/12/16 09:26:32;;;;;;;15.18;10.90;;;7.30;99.90;;;6.46;100.00;103142.31;4103908;28;20031;-72
2021/12/16 09:28:33;;;;;;;13.25;10.57;;;7.30;99.90;;;6.38;100.00;103135.75;4102353;29;20055;-71
2021/12/16 09:30:36;;;;;;;15.50;10.70;;;7.40;99.90;;;6.23;100.00;103147.78;4118475;28;20027;-72
2021/12/16 09:32:37;;;;;;;14.75;10.80;;;7.30;99.90;;;6.12;100.00;103139.56;4118135;28;20043;-71
2021/12/16 09:34:41;;;;;;;17.38;11.55;;;7.30;99.90;;;6.25;100.00;103147.69;4118567;28;20051;-72
2021/12/16 09:36:45;;;;;;;15.18;11.02;;;7.30;99.90;;;6.19;100.00;103145.34;4118319;28;20070;-72
2021/12/16 09:38:48;;;;;;;13.43;9.73;;;7.30;99.90;;;6.28;100.00;103155.41;4100774;29;20063;-71
2021/12/16 09:40:54;;;;;;;13.03;9.70;;;7.30;99.90;;;6.20;100.00;103147.91;4103725;28;20036;-71
2021/12/16 09:42:57;;;;;;;14.52;9.98;;;7.30;99.90;;;6.12;100.00;103139.56;4103442;28;20377;-72
2021/12/16 09:44:58;;;;;;;13.27;9.90;;;7.20;99.90;;;6.22;100.00;103156.56;4118558;28;20482;-72
2021/12/16 09:47:02;;;;;;;17.40;10.05;;;7.30;99.90;;;6.35;100.00;103144.59;4101864;28;20066;-72
2021/12/16 09:49:04;;;;;;;13.57;9.95;;;7.50;99.90;;;6.40;100.00;103147.00;4103388;28;20020;-72
2021/12/16 09:51:09;;;;;;;12.60;9.63;;;7.30;99.90;;;6.47;100.00;103157.16;4118231;28;20030;-72
2021/12/16 09:53:10;;;;;;;14.52;10.52;;;7.40;99.90;;;6.41;100.00;103162.66;4118158;28;20022;-71
2021/12/16 09:55:11;;;;;;;13.20;10.02;;;7.50;99.90;;;6.38;100.00;103161.97;4101844;28;20031;-72
2021/12/16 09:57:15;;;;;;;14.52;9.63;;;7.40;99.90;;;6.58;100.00;103165.34;4118188;28;20438;-72
2021/12/16 09:59:20;;;;;;;12.70;9.30;;;6.90;99.90;;;6.62;100.00;103158.22;4118049;28;20667;-72
2021/12/16 10:01:23;;;;;;;12.20;9.63;;;7.60;99.90;;;6.57;100.00;103168.06;4101901;29;20494;-72
2021/12/16 10:03:26;;;;;;;11.95;9.45;;;7.60;99.90;;;6.62;100.00;103160.81;4103175;28;20039;-72
2021/12/16 10:05:28;;;;;;;12.05;8.82;;;7.80;99.90;;;6.73;100.00;103173.44;4103105;28;20418;-72
2021/12/16 10:07:33;;;;;;;15.40;9.73;;;7.70;99.90;;;6.56;100.00;103164.59;4134237;28;20030;-71
2021/12/16 10:09:34;;;;;;;14.07;9.43;;;7.80;99.90;;;6.61;100.00;103162.59;4103278;28;20031;-72
2021/12/16 10:11:38;;;;;;;14.45;10.10;;;7.70;99.90;;;6.69;100.00;103167.47;4117981;28;20093;-72
2021/12/16 10:13:48;;;;;;;12.35;8.82;;;7.70;99.90;;;6.63;100.00;103159.91;4120646;28;20026;-72
2021/12/16 10:17:50;;;;;;;12.27;9.48;;;7.70;99.90;;;6.62;100.00;103166.94;4105987;28;20027;-72
2021/12/16 10:19:55;;;;;;;13.75;9.00;;;7.70;99.90;;;6.83;100.00;103159.81;4106324;28;20039;-72
2021/12/16 10:22:18;;;;;;;12.70;9.27;;;7.80;99.90;;;6.84;100.00;103171.16;4120671;28;20027;-72
2021/12/16 10:24:29;;;;;;;13.20;10.00;;;7.90;99.90;;;6.78;100.00;103174.91;4105912;29;20035;-72
2021/12/16 10:26:31;;;;;;;12.52;9.02;;;7.90;99.90;;;6.80;100.00;103180.94;4106111;29;20031;-72
2021/12/16 10:28:40;;;;;;;15.15;9.98;;;7.90;99.90;;;6.97;100.00;103178.38;4120697;28;20050;-72
2021/12/16 10:31:09;;;;;;;12.15;9.38;;;8.00;99.90;;;6.89;100.00;103182.28;4120460;28;20473;-72
2021/12/16 10:33:38;;;;;;;14.85;8.98;;;7.90;99.90;;;6.86;100.00;103174.56;4107721;28;20031;-72
2021/12/16 10:35:40;;;;;;;12.52;8.88;;;7.90;99.90;;;6.93;100.00;103170.72;4107854;28;20054;-72
2021/12/16 10:37:56;;;;;;;11.32;9.25;;;8.00;99.90;;;6.85;100.00;103164.97;4104751;28;20150;-72
2021/12/16 10:40:31;;;;;;;11.85;9.20;;;8.10;99.90;;;7.02;100.00;103178.13;4099841;29;20031;-72
2021/12/16 10:42:46;;;;;;;13.40;9.88;;;8.00;99.90;;;6.77;100.00;103164.50;4105800;28;20034;-72
2021/12/16 10:44:47;;;;;;;12.85;8.60;;;8.00;99.90;;;6.91;100.00;103160.28;4105847;28;20040;-72
2021/12/16 10:46:59;;;;;;;10.50;8.43;;;8.00;99.90;;;7.07;100.00;103179.63;4105521;28;20023;-72
2021/12/16 10:49:08;;;;;;;10.52;8.57;;;8.10;99.90;;;7.10;100.00;103174.25;4105681;28;20031;-72
2021/12/16 10:51:11;;;;;;;11.43;9.23;;;7.90;99.90;;;7.23;100.00;103179.72;4120366;28;20101;-72
2021/12/16 10:53:12;;;;;;;10.60;8.68;;;8.10;99.90;;;7.06;100.00;103169.19;4105600;28;20126;-72
2021/12/16 10:55:13;;;;;;;10.98;8.65;;;8.20;99.90;;;6.98;100.00;103163.47;4104251;28;20031;-71
2021/12/16 10:57:26;;;;;;;11.90;9.27;;;8.10;99.90;;;6.75;100.00;103145.38;4105682;28;20035;-71
2021/12/16 10:59:38;;;;;;;12.02;8.88;;;8.10;99.90;;;6.75;100.00;103151.44;4119926;28;20031;-72
2021/12/16 11:01:59;;;;;;;13.85;9.00;;;8.10;99.90;;;6.92;100.00;103162.00;4105226;28;20149;-72